Terminal Aerodrome Forecast
Issued by NWS Austin/San Antonio, TX

Home | Current Version | Previous Version | Text Only | Print | Product List | Glossary On
Versions: 1 2 3 4 5 6 7 8 9 10 11 12 13 14 15 16 17 18 19 20 21
000
FTUS44 KEWX 251100
TAFSAT
TAF
KSAT 251140Z 2512/2618 31003KT P6SM BKN250
     FM251800 35013KT P6SM BKN250
     FM260000 34007KT P6SM BKN250
     FM260500 31004KT P6SM SCT250=

USA.gov is the U.S. government's official web portal to all federal, state and local government web resources and services.